Airfield :
LOGIN :

Register | Disclaimer

   EN    FR    IT 

 










Legend :    VFR   Marginal VFR   IFR   Intensive IFR   Very Intensive IFR
Visi :
Ceiling :
>= 8 km
>= 3000ft
5 to 8 km
1000 to 3000 ft
1500m to 5 km
500 to 1000 ft
800 to 1500m
200 to 500 ft
< 800m
< 200 ft
Symbols :   Thunderstorms  Fog  Heavy snow  Heavy precipitations  Wind > 20 kt
SIGMETs :     Misc.  Thunderstorms  Icing  Turbulence  Mountain Waves  Volcanic Ashes






- Airport Elevation : 49 ft
- IATA code : SEN


EGMC - Southend

CURRENT METAR :
  • 190820Z 12006KT 6000 NSC 18/16 Q1013

EXPIRED METARs :
  • 190750Z 08002KT 5000 BR NSC 17/16 Q1013
  • 190720Z 00000KT 5000 BR NSC 15/15 Q1013
  • 190650Z 05002KT 5000 BR NSC 14/13 Q1013
  • 190620Z 00000KT 5000 BR NSC 13/13 Q1013
  • 190550Z 00000KT 5000 BR NSC 13/13 Q1012

TAF TAF EGMC
Valid from the 19 at 06:00 until the 19 at 15:00 UTC


190459Z 1906/1915 06005KT 9999 FEW040
PROB40 1906/1908 7000
TEMPO 1911/1915 6000 RA SHRA
PROB30
TEMPO 1912/1915 4000 +SHRA BKN008



MET'MAP, your aeronautical weather chart ! - Copyright ORBIFLY December 2007 - Disclaimer

ORBIFLY MET'MAP TEAM :

Programming & Development : Alexandra Zaïnal
Concept & original design : Baudouin d'Aumeries
Assistance for programming : Marc-Olivier Méhu
Technical & hardware support : Manuel Goepfert

Contact : metmap@orbifly.com




SOURCES & CREDITS :

   NOAA